Accueil
METAR-TAF:

METAR-TAF

Aéroports :

Altenstadt, Allemagne

latitude: 47-50N, longitude: 010-52E, altitude: 739 m

Observation

Le bulletin a été fait il y a 55 minutes, à 22:20 UTC
Vent 2 kt de direction variable
Température 8°C
Humidité 81%
Pression 1003 hPa
Visibilité 10 km ou plus

METAR: ETHA 262220Z AUTO VRB02KT 9999 // ////// 08/05 Q1003 ///

Heure: 01:15 (23:15 UTC)

Prévision

Le bulletin a été fait il y a 9 heures et 54 minutes, à 13:21 UTC
Prévision valable du 26 à 14 UTC au 26 à 23 UTC
Vent 10 kt de ouest avec des rafales jusqu'à 20 kt
Visibilité 10 km ou plus
Quelques nuages à une hauteur de 1500 ft
Nuages épars à une hauteur de 6000 ft

TAF: ETHA 261321Z 2614/2623 26010G20KT 9999 NSW FEW015 SCT060

Observations et prévisions météorologiques de plus de 4000 aéroports (messages METAR et TAF).

Les stations disponibles sont représentées par des disques jaunes et rouges sur la carte.

Passer la souris dessus pour voir le nom de la station.

Cliquer dessus pour voir les observations et prévisions météorologiques.

Pour changer de carte: cliquez sur les boutons verts avec une croix noire pour zoomer, sur le bouton vert avec un tiret pour effectuer un zoom arrière, ou sur les flèches vertes pour les cartes adjacentes.


METAR-TAF: